Terminal Aerodrome Forecast
Issued by NWS

Home | Current Version | Previous Version | Text Only | Print | Product List | Glossary On
Versions: 1 2 3 4 5 6 7 8 9 10 11 12 13 14 15 16
687
FTUS43 KOAX 171120
TAFSNY
TAF
KSNY 171120Z 1712/1812 29008KT P6SM SKC
     FM171800 28014G21KT P6SM SKC
     FM180000 25008KT P6SM SKC=

USA.gov is the U.S. government's official web portal to all federal, state and local government web resources and services.